Levant, ME (04456)

3:12 AM EST on November 26, 2014 (GMT -0500)
Libbey Lane | Change Station
CLOSE
Current Station
Personal Weather Station
Location: Glenburn, ME
Elevation: 194 ft
Nearby Weather Stations

Elev 194 ft 44.89 °N, 68.87 °W | Updated 12 minutes ago

Partly Cloudy
Partly Cloudy
39.4 °F
Feels Like 39 °F
N
2.7
Wind Variable Wind from West

Today
High -- | Low -- °F
--% Chance of Precip.
Yesterday
High -- | Low -- °F
Precip. -- in
6:47 AM 3:58 PM
Waxing Crescent, 17% visible
Pressure 30.11 in
Visibility 10.0 miles
Clouds Scattered Clouds 20000 ft
Windchill 39 °F
Dew Point 29 °F
Humidity 66%
Rainfall 0.00 in
Snow Depth Not available.
UV 0 out of 12
Pollen .10 out of 12
Air Quality Not available.
Flu Activity Not available.
METAR KBGR 260753Z 23006KT 10SM SCT200 05/M04 A3010 RMK AO2 SLP194 T00501039

More Conditions Fewer Conditions

Pressure 30.11 in
Visibility 10.0 miles
Clouds Scattered Clouds 20000 ft
Windchill 39 °F
Dew Point 29 °F
Humidity 66%
Rainfall 0.00 in
Snow Depth Not available.
UV 0 out of 12
Pollen .10 out of 12
Air Quality Not available.
Flu Activity Not available.
METAR KBGR 260753Z 23006KT 10SM SCT200 05/M04 A3010 RMK AO2 SLP194 T00501039

More Conditions Fewer Conditions

10-Day Weather Forecast

Almanac

Astronomy

Nov. 26, 2014 Rise Set
Actual Time
Civil Twilight
Nautical Twilight
Astronomical Twilight
Moon
Length of Visible Light
Length of Day
Tomorrow will be .
, % of the Moon is Illuminated

Today's Extremes

State Highs State Lows

Community

WunderPhotos

Upload Photos

1,773,694 photos uploaded!

WunderBlogs® & News

Nearby

Air Quality

  Air Quality AQ Index Pollutant
Not available.

Snow Depth

Station Depth Elevation

Earthquake Activity

City Distance Mag. Time & Date
Minimum magnitude displayed is 2.5.

Coastal Water Temperatures

Place Temperature

Nearby Weather Stations